Hovedside
METAR-TAF:

METAR-TAF

Lufthavner :

Vladivostok, Russland

Vladivostok internasjonale lufthavn

breddegrad: 43-07N, lengdegrad: 131-56E, høyde over havet: 184 m

Gjeldene værobservasjon

Denne rapporten ble laget for 32 minutter siden, klokken 18:00 UTC
Flau vind
Temperatur -1°C
Luftfuktighet 69%
Trykk 1013 hPa
Sikt: 9000 m

METAR: UHWW 241800Z 00000MPS 9000 NSC M01/M06 Q1013 R07R/0///70 NOSIG RMK QFE759

Tid: 04:32 (18:32 UTC)

Varsel

Denne rapporten ble laget for 1 time og 32 minutter siden, klokken 17:00 UTC
Varsel gyldig fra 24. klokken 18 UTC til 25. klokken 18 UTC
Vind 6 kt fra Nord
Sikt: 3100 m
Spredte skyer i en høyde av 1100 ft
Brutte skyer i en høyde av 4000 ft
dis
Fra 25. klokken 0000 UTC
Vind 6 kt fra Sørvest
Sikt: 5000 m
Spredte skyer i en høyde av 3300 ft
dis

TAF: UHWW 241700Z 2418/2518 01003MPS 3100 BR SCT011 BKN040 FM250000 22003MPS 5000 HZ SCT033

Værobservasjoner og værvarsel for over 4000 flyplasser (METAR- og TAF-rapporter).

Tilgjengelige stasjoner er representert av de røde og gule prikkene på kartet.

Hold musepekeren over prikken for å se navnet på stasjonen.

Klikk så for å se værobservasjoner og -varsler.

For å forandre kartet kan du klikke på den grønne knappen med svart kryss for å zoome inn, på den grønne knappen med strek for å zoome ut, eller på de grønne pilene for å se tilstøtende kart.


METAR-TAF: